createdAt,value
2022-11-01T00:00:40.342Z,98860.83
2022-11-01T00:02:02.168Z,98855.98
2022-11-01T00:03:03.929Z,98859.55
2022-11-01T00:04:06.074Z,98852.70
2022-11-01T00:05:08.157Z,98856.05
2022-11-01T00:06:09.857Z,98850.81
2022-11-01T00:07:11.539Z,98850.14
2022-11-01T00:08:13.231Z,98851.84
2022-11-01T00:09:15.149Z,98847.77
2022-11-01T00:11:19.548Z,98848.20
2022-11-01T00:12:21.560Z,98845.66
2022-11-01T00:13:23.302Z,98849.75
2022-11-01T00:14:24.990Z,98850.79
2022-11-01T00:15:26.629Z,98853.30
2022-11-01T00:16:29.036Z,98854.07
2022-11-01T00:17:30.738Z,98856.92
2022-11-01T00:18:32.479Z,98855.17
2022-11-01T00:19:34.105Z,98856.21
2022-11-01T00:20:35.727Z,98860.27
2022-11-01T00:21:37.440Z,98858.16
2022-11-01T00:22:39.048Z,98859.84
2022-11-01T00:23:41.032Z,98861.16
2022-11-01T00:24:42.877Z,98856.52
2022-11-01T00:25:44.842Z,98853.34
2022-11-01T00:26:46.490Z,98856.11
2022-11-01T00:27:48.292Z,98853.58
2022-11-01T00:28:51.168Z,98850.01
2022-11-01T00:29:52.825Z,98853.36
2022-11-01T00:30:56.988Z,98852.82
2022-11-01T00:32:00.087Z,98849.05
2022-11-01T00:33:01.724Z,98850.89
2022-11-01T00:34:05.740Z,98848.29
2022-11-01T00:35:07.680Z,98846.81
2022-11-01T00:36:10.030Z,98848.41
2022-11-01T00:37:11.731Z,98846.36
2022-11-01T00:38:13.911Z,98845.23
2022-11-01T00:39:16.615Z,98840.33
2022-11-01T00:40:18.233Z,98842.23
2022-11-01T00:41:21.806Z,98841.84
2022-11-01T00:42:23.552Z,98843.02
2022-11-01T00:43:25.712Z,98843.61
2022-11-01T00:44:27.432Z,98841.65
2022-11-01T00:45:29.123Z,98839.60
2022-11-01T00:46:31.559Z,98833.71
2022-11-01T00:47:33.218Z,98832.48
2022-11-01T00:48:34.895Z,98828.73
2022-11-01T00:49:36.537Z,98827.67
2022-11-01T00:50:39.061Z,98824.89
2022-11-01T00:51:40.701Z,98824.10
2022-11-01T00:52:42.350Z,98822.63
2022-11-01T00:53:43.981Z,98820.84
2022-11-01T00:54:45.665Z,98819.73
2022-11-01T00:55:47.410Z,98823.28
2022-11-01T00:56:49.075Z,98820.27
2022-11-01T00:57:50.776Z,98821.21
2022-11-01T00:58:52.698Z,98825.41
2022-11-01T00:59:54.406Z,98822.74
2022-11-01T01:00:56.504Z,98820.20
2022-11-01T01:01:58.420Z,98816.58
2022-11-01T01:03:00.436Z,98820.60
2022-11-01T01:04:02.512Z,98823.06
2022-11-01T01:05:05.208Z,98817.92
2022-11-01T01:06:06.884Z,98822.02
2022-11-01T01:07:09.434Z,98820.64
2022-11-01T01:08:11.420Z,98821.34
2022-11-01T01:09:13.082Z,98821.60
2022-11-01T01:10:14.779Z,98822.17
2022-11-01T01:11:16.738Z,98822.37
2022-11-01T01:12:18.379Z,98821.54
2022-11-01T01:13:21.033Z,98818.36
2022-11-01T01:14:22.859Z,98816.57
2022-11-01T01:15:24.710Z,98810.66
2022-11-01T01:16:26.582Z,98812.95
2022-11-01T01:17:31.307Z,98809.61
2022-11-01T01:18:35.486Z,98804.66
2022-11-01T01:19:37.123Z,98799.64
2022-11-01T01:20:38.851Z,98798.83
2022-11-01T01:21:40.514Z,98797.92
2022-11-01T01:22:42.645Z,98795.86
2022-11-01T01:23:44.278Z,98798.30
2022-11-01T01:24:47.685Z,98797.55
2022-11-01T01:25:49.367Z,98798.73
2022-11-01T01:26:51.305Z,98802.23
2022-11-01T01:27:53.040Z,98796.55
2022-11-01T01:28:55.163Z,98798.66
2022-11-01T01:29:56.807Z,98797.19
2022-11-01T01:30:58.683Z,98799.81
2022-11-01T01:32:00.466Z,98797.86
2022-11-01T01:33:02.226Z,98798.15
2022-11-01T01:34:04.021Z,98797.36
2022-11-01T01:35:06.182Z,98793.15
2022-11-01T01:36:08.198Z,98791.48
2022-11-01T01:37:11.052Z,98789.09
2022-11-01T01:38:12.718Z,98788.64
2022-11-01T01:39:14.414Z,98788.89
2022-11-01T01:40:16.079Z,98788.08
2022-11-01T01:41:36.631Z,98786.77
2022-11-01T01:42:42.770Z,98782.54
2022-11-01T01:43:45.167Z,98783.65
2022-11-01T01:44:47.460Z,98785.05
2022-11-01T01:45:49.116Z,98784.63
2022-11-01T01:46:51.971Z,98787.05
2022-11-01T01:47:57.334Z,98783.64
2022-11-01T01:49:00.165Z,98781.41
2022-11-01T01:50:18.123Z,98780.48
2022-11-01T01:51:26.447Z,98777.48
2022-11-01T01:52:34.599Z,98778.55
2022-11-01T01:53:43.981Z,98774.44
2022-11-01T01:54:46.893Z,98772.19
2022-11-01T01:55:57.565Z,98771.94
2022-11-01T01:56:59.792Z,98771.27
2022-11-01T01:58:02.083Z,98770.11
2022-11-01T01:59:07.739Z,98766.55
2022-11-01T02:00:10.204Z,98767.92
2022-11-01T02:01:14.902Z,98768.30
2022-11-01T02:02:19.227Z,98765.96
2022-11-01T02:03:25.368Z,98766.81
2022-11-01T02:04:37.179Z,98765.93
2022-11-01T02:05:52.268Z,98765.82
2022-11-01T02:06:54.115Z,98764.38
2022-11-01T02:07:57.594Z,98769.73
2022-11-01T02:09:03.526Z,98767.83
2022-11-01T02:10:06.293Z,98768.83
2022-11-01T02:11:09.545Z,98769.59
2022-11-01T02:12:14.054Z,98770.00
2022-11-01T02:13:15.769Z,98769.33
2022-11-01T02:14:20.969Z,98768.20
2022-11-01T02:15:32.011Z,98768.48
2022-11-01T02:17:08.905Z,98772.11
2022-11-01T02:18:21.322Z,98772.29
2022-11-01T02:20:00.148Z,98774.06
2022-11-01T02:21:38.973Z,98772.92
2022-11-01T02:23:08.573Z,98774.48
2022-11-01T02:24:49.392Z,98772.13
2022-11-01T02:26:31.681Z,98769.52
2022-11-01T02:27:57.672Z,98764.92
2022-11-01T02:29:28.974Z,98765.70
2022-11-01T02:30:56.758Z,98758.60
2022-11-01T02:32:07.644Z,98762.41
2022-11-01T02:33:16.383Z,98764.55
2022-11-01T02:34:30.532Z,98766.98
2022-11-01T02:36:07.739Z,98767.67
2022-11-01T02:37:16.270Z,98763.36
2022-11-01T02:38:30.639Z,98768.24
2022-11-01T02:39:37.691Z,98765.53
2022-11-01T02:41:15.929Z,98762.66
2022-11-01T02:42:46.631Z,98760.73
2022-11-01T02:43:58.055Z,98758.73
2022-11-01T02:45:11.717Z,98755.65
2022-11-01T02:47:15.273Z,98753.02
2022-11-01T02:48:23.103Z,98750.81
2022-11-01T02:49:36.958Z,98749.39
2022-11-01T02:50:51.163Z,98748.21
2022-11-01T02:51:56.067Z,98752.95
2022-11-01T02:52:59.684Z,98747.27
2022-11-01T02:54:10.619Z,98746.30
2022-11-01T02:55:30.737Z,98748.73
2022-11-01T02:56:33.083Z,98744.02
2022-11-01T02:57:40.966Z,98745.23
2022-11-01T02:58:45.075Z,98741.58
2022-11-01T02:59:48.859Z,98742.88
2022-11-01T03:00:52.233Z,98740.20
2022-11-01T03:02:10.568Z,98744.34
2022-11-01T03:03:23.763Z,98743.77
2022-11-01T03:04:26.192Z,98742.56
2022-11-01T03:05:42.816Z,98744.86
2022-11-01T03:06:53.327Z,98744.91
2022-11-01T03:08:00.771Z,98739.68
2022-11-01T03:09:10.065Z,98737.15
2022-11-01T03:10:12.728Z,98737.46
2022-11-01T03:11:19.059Z,98734.86
2022-11-01T03:13:40.171Z,98732.47
2022-11-01T03:14:48.484Z,98733.52
2022-11-01T03:16:02.547Z,98734.11
2022-11-01T03:17:25.446Z,98731.25
2022-11-01T03:18:35.793Z,98736.63
2022-11-01T03:20:08.605Z,98735.73
2022-11-01T03:21:20.735Z,98737.98
2022-11-01T03:22:34.924Z,98741.64
2022-11-01T03:23:57.178Z,98738.45
2022-11-01T03:25:39.050Z,98746.05
2022-11-01T03:26:46.509Z,98742.17
2022-11-01T03:27:48.930Z,98740.23
2022-11-01T03:28:57.076Z,98741.71
2022-11-01T03:30:06.020Z,98737.89
2022-11-01T03:31:14.528Z,98736.42
2022-11-01T03:32:20.034Z,98733.17
2022-11-01T03:33:26.549Z,98733.06
2022-11-01T03:34:28.302Z,98733.71
2022-11-01T03:35:37.579Z,98729.36
2022-11-01T03:36:47.366Z,98728.03
2022-11-01T03:37:53.212Z,98731.07
2022-11-01T03:39:20.087Z,98729.25
2022-11-01T03:40:26.360Z,98730.03
2022-11-01T03:41:35.952Z,98724.88
2022-11-01T03:42:39.704Z,98724.67
2022-11-01T03:43:41.609Z,98725.16
2022-11-01T03:44:48.576Z,98721.89
2022-11-01T03:45:50.601Z,98722.27
2022-11-01T03:46:52.392Z,98722.16
2022-11-01T03:47:54.186Z,98723.67
2022-11-01T03:48:55.842Z,98724.70
2022-11-01T03:50:24.280Z,98723.59
2022-11-01T03:51:25.962Z,98725.70
2022-11-01T03:52:27.962Z,98727.82
2022-11-01T03:53:29.603Z,98726.53
2022-11-01T03:54:31.403Z,98722.27
2022-11-01T03:55:33.183Z,98725.02
2022-11-01T03:56:34.891Z,98720.80
2022-11-01T03:57:36.688Z,98718.95
2022-11-01T03:58:45.165Z,98717.92
2022-11-01T03:59:46.792Z,98719.21
2022-11-01T04:00:48.517Z,98712.70
2022-11-01T04:01:50.825Z,98713.02
2022-11-01T04:02:54.273Z,98714.64
2022-11-01T04:03:55.952Z,98715.18
2022-11-01T04:04:57.571Z,98715.60
2022-11-01T04:05:59.838Z,98712.58
2022-11-01T04:07:01.529Z,98715.27
2022-11-01T04:08:04.654Z,98713.70
2022-11-01T04:09:06.754Z,98712.25
2022-11-01T04:10:08.886Z,98713.45
2022-11-01T04:11:10.633Z,98713.99
2022-11-01T04:12:12.566Z,98711.02
2022-11-01T04:13:14.582Z,98710.52
2022-11-01T04:14:34.569Z,98707.56
2022-11-01T04:15:54.563Z,98706.59
2022-11-01T04:17:14.536Z,98708.26
2022-11-01T04:20:05.731Z,98707.38
2022-11-01T04:21:19.636Z,98709.43
2022-11-01T04:22:23.729Z,98704.65
2022-11-01T04:23:26.563Z,98706.92
2022-11-01T04:24:28.348Z,98708.25
2022-11-01T04:25:31.520Z,98707.98
2022-11-01T04:26:34.151Z,98705.41
2022-11-01T04:27:35.865Z,98706.27
2022-11-01T04:28:37.571Z,98705.13
2022-11-01T04:29:39.192Z,98702.38
2022-11-01T04:30:42.037Z,98701.89
2022-11-01T04:31:43.648Z,98701.23
2022-11-01T04:32:45.425Z,98698.55
2022-11-01T04:33:47.154Z,98698.81
2022-11-01T04:34:48.823Z,98694.20
2022-11-01T04:35:50.653Z,98694.95
2022-11-01T04:36:52.299Z,98690.77
2022-11-01T04:37:58.813Z,98695.35
2022-11-01T04:39:00.862Z,98692.41
2022-11-01T04:40:02.531Z,98694.23
2022-11-01T04:41:04.269Z,98692.98
2022-11-01T04:42:05.965Z,98693.04
2022-11-01T04:43:07.876Z,98691.95
2022-11-01T04:44:09.529Z,98689.14
2022-11-01T04:45:11.256Z,98685.15
2022-11-01T04:46:13.205Z,98680.14
2022-11-01T04:47:14.957Z,98676.02
2022-11-01T04:48:16.989Z,98668.96
2022-11-01T04:49:18.672Z,98666.69
2022-11-01T04:50:20.935Z,98661.04
2022-11-01T04:51:22.658Z,98659.15
2022-11-01T04:52:25.063Z,98658.07
2022-11-01T04:53:27.012Z,98653.91
2022-11-01T04:54:33.694Z,98653.42
2022-11-01T04:55:35.550Z,98647.98
2022-11-01T04:56:37.200Z,98646.73
2022-11-01T04:57:40.549Z,98648.16
2022-11-01T04:58:45.157Z,98642.50
2022-11-01T04:59:49.446Z,98643.03
2022-11-01T05:00:51.224Z,98643.69
2022-11-01T05:01:52.941Z,98642.02
2022-11-01T05:03:02.332Z,98639.27
2022-11-01T05:04:04.674Z,98639.48
2022-11-01T05:05:09.641Z,98634.84
2022-11-01T05:06:11.279Z,98636.72
2022-11-01T05:07:13.529Z,98636.41
2022-11-01T05:08:15.251Z,98634.97
2022-11-01T05:09:16.923Z,98636.20
2022-11-01T05:10:18.704Z,98631.67
2022-11-01T05:11:25.363Z,98629.99
2022-11-01T05:12:27.442Z,98630.48
2022-11-01T05:13:29.124Z,98629.89
2022-11-01T05:14:30.811Z,98630.16
2022-11-01T05:15:32.684Z,98631.18
2022-11-01T05:16:34.324Z,98631.98
2022-11-01T05:17:36.038Z,98635.00
2022-11-01T05:18:40.822Z,98631.17
2022-11-01T05:19:42.473Z,98634.90
2022-11-01T05:20:44.219Z,98632.46
2022-11-01T05:21:45.881Z,98633.45
2022-11-01T05:22:47.574Z,98629.00
2022-11-01T05:23:49.438Z,98633.46
2022-11-01T05:24:51.116Z,98634.11
2022-11-01T05:25:52.815Z,98632.46
2022-11-01T05:26:54.458Z,98635.15
2022-11-01T05:28:07.007Z,98628.12
2022-11-01T05:29:23.896Z,98629.95
2022-11-01T05:30:26.451Z,98630.28
2022-11-01T05:31:28.116Z,98631.63
2022-11-01T05:32:29.826Z,98632.52
2022-11-01T05:33:31.545Z,98629.27
2022-11-01T05:34:33.432Z,98628.47
2022-11-01T05:35:36.388Z,98630.14
2022-11-01T05:36:38.224Z,98631.77
2022-11-01T05:37:39.833Z,98635.77
2022-11-01T05:38:41.478Z,98636.54
2022-11-01T05:39:43.158Z,98634.43
2022-11-01T05:40:44.780Z,98636.95
2022-11-01T05:41:46.453Z,98639.61
2022-11-01T05:42:48.448Z,98637.25
2022-11-01T05:43:50.264Z,98638.17
2022-11-01T05:44:52.069Z,98632.89
2022-11-01T05:45:53.740Z,98634.50
2022-11-01T05:46:55.351Z,98634.52
2022-11-01T05:48:02.418Z,98631.16
2022-11-01T05:49:04.265Z,98632.30
2022-11-01T05:50:08.163Z,98628.58
2022-11-01T05:51:10.802Z,98627.12
2022-11-01T05:52:12.450Z,98631.00
2022-11-01T05:53:14.726Z,98631.96
2022-11-01T05:54:16.451Z,98633.15
2022-11-01T05:55:18.194Z,98633.54
2022-11-01T05:56:19.839Z,98631.98
2022-11-01T05:57:21.465Z,98632.05
2022-11-01T05:58:27.889Z,98633.36
2022-11-01T05:59:32.375Z,98632.77
2022-11-01T06:00:34.928Z,98632.07
2022-11-01T06:01:36.624Z,98631.23
2022-11-01T06:02:38.531Z,98636.20
2022-11-01T06:03:40.243Z,98637.55
2022-11-01T06:04:41.851Z,98636.70
2022-11-01T06:05:43.500Z,98641.39
2022-11-01T06:06:45.145Z,98642.31
2022-11-01T06:07:46.911Z,98639.85
2022-11-01T06:08:48.538Z,98639.91
2022-11-01T06:09:50.226Z,98644.45
2022-11-01T06:10:53.007Z,98644.28
2022-11-01T06:11:54.654Z,98645.21
2022-11-01T06:12:56.775Z,98645.59
2022-11-01T06:13:59.504Z,98651.38
2022-11-01T06:15:01.121Z,98652.14
2022-11-01T06:16:05.727Z,98660.08
2022-11-01T06:17:08.376Z,98660.04
2022-11-01T06:18:10.120Z,98660.91
2022-11-01T06:19:11.849Z,98662.91
2022-11-01T06:20:13.803Z,98665.67
2022-11-01T06:21:16.031Z,98662.77
2022-11-01T06:22:18.003Z,98667.84
2022-11-01T06:23:20.012Z,98665.95
2022-11-01T06:24:21.924Z,98664.77
2022-11-01T06:25:23.614Z,98664.71
2022-11-01T06:26:25.315Z,98663.44
2022-11-01T06:27:28.091Z,98660.05
2022-11-01T06:28:29.916Z,98660.27
2022-11-01T06:29:31.570Z,98659.73
2022-11-01T06:30:33.244Z,98659.90
2022-11-01T06:31:34.902Z,98658.70
2022-11-01T06:32:36.558Z,98663.48
2022-11-01T06:33:38.219Z,98661.98
2022-11-01T06:34:42.399Z,98662.80
2022-11-01T06:35:46.767Z,98663.19
2022-11-01T06:36:49.026Z,98663.35
2022-11-01T06:37:50.669Z,98665.41
2022-11-01T06:38:52.426Z,98666.65
2022-11-01T06:39:54.060Z,98666.55
2022-11-01T06:40:56.030Z,98665.75
2022-11-01T06:41:57.732Z,98667.86
2022-11-01T06:43:01.668Z,98672.34
2022-11-01T06:44:03.683Z,98676.72
2022-11-01T06:45:05.824Z,98682.21
2022-11-01T06:46:07.965Z,98680.94
2022-11-01T06:47:11.921Z,98685.80
2022-11-01T06:48:13.992Z,98686.30
2022-11-01T06:49:18.884Z,98689.98
2022-11-01T06:50:21.183Z,98688.48
2022-11-01T06:51:22.868Z,98690.27
2022-11-01T06:52:24.535Z,98689.02
2022-11-01T06:53:26.243Z,98689.41
2022-11-01T06:54:27.893Z,98691.66
2022-11-01T06:55:30.158Z,98691.46
2022-11-01T06:56:31.840Z,98690.06
2022-11-01T06:57:33.497Z,98693.78
2022-11-01T06:58:35.280Z,98696.60
2022-11-01T06:59:37.006Z,98698.55
2022-11-01T07:00:38.746Z,98700.16
2022-11-01T07:01:40.578Z,98706.05
2022-11-01T07:02:42.298Z,98704.27
2022-11-01T07:03:44.129Z,98702.19
2022-11-01T07:04:46.145Z,98706.02
2022-11-01T07:05:49.535Z,98704.95
2022-11-01T07:06:51.244Z,98706.58
2022-11-01T07:07:54.017Z,98709.81
2022-11-01T07:08:55.817Z,98709.70
2022-11-01T07:09:57.724Z,98716.03
2022-11-01T07:10:59.394Z,98715.54
2022-11-01T07:12:01.127Z,98720.73
2022-11-01T07:13:05.485Z,98716.30
2022-11-01T07:14:07.219Z,98717.48
2022-11-01T07:15:09.225Z,98717.70
2022-11-01T07:16:10.845Z,98715.44
2022-11-01T07:17:12.460Z,98712.41
2022-11-01T07:18:14.115Z,98713.07
2022-11-01T07:19:15.851Z,98710.48
2022-11-01T07:20:17.447Z,98709.73
2022-11-01T07:21:19.305Z,98708.49
2022-11-01T07:22:20.943Z,98710.37
2022-11-01T07:23:22.598Z,98707.79
2022-11-01T07:24:24.371Z,98709.83
2022-11-01T07:25:26.317Z,98707.79
2022-11-01T07:26:27.965Z,98708.59
2022-11-01T07:27:29.617Z,98704.92
2022-11-01T07:28:31.284Z,98703.77
2022-11-01T07:29:33.009Z,98699.28
2022-11-01T07:30:35.267Z,98695.14
2022-11-01T07:31:38.876Z,98694.16
2022-11-01T07:32:40.473Z,98690.62
2022-11-01T07:33:42.118Z,98688.45
2022-11-01T07:34:44.166Z,98686.36
2022-11-01T07:35:46.723Z,98684.68
2022-11-01T07:36:51.846Z,98682.91
2022-11-01T07:37:56.252Z,98685.34
2022-11-01T07:38:57.954Z,98685.23
2022-11-01T07:39:59.597Z,98685.02
2022-11-01T07:41:04.448Z,98679.98
2022-11-01T07:42:06.111Z,98679.77
2022-11-01T07:43:08.399Z,98678.96
2022-11-01T07:44:10.073Z,98681.61
2022-11-01T07:45:14.013Z,98682.15
2022-11-01T07:46:15.728Z,98677.45
2022-11-01T07:47:17.461Z,98678.96
2022-11-01T07:48:19.950Z,98676.66
2022-11-01T07:49:21.565Z,98674.13
2022-11-01T07:50:23.269Z,98673.31
2022-11-01T07:51:24.883Z,98669.95
2022-11-01T07:52:26.677Z,98671.10
2022-11-01T07:53:28.327Z,98670.98
2022-11-01T07:54:30.228Z,98672.67
2022-11-01T07:55:32.829Z,98670.83
2022-11-01T07:56:34.722Z,98669.95
2022-11-01T07:57:40.919Z,98673.67
2022-11-01T07:58:43.660Z,98673.55
2022-11-01T07:59:45.348Z,98673.95
2022-11-01T08:00:47.137Z,98676.11
2022-11-01T08:01:49.050Z,98676.09
2022-11-01T08:02:51.148Z,98674.27
2022-11-01T08:03:52.790Z,98675.07
2022-11-01T08:04:54.579Z,98675.39
2022-11-01T08:05:56.391Z,98675.93
2022-11-01T08:06:58.039Z,98679.17
2022-11-01T08:08:00.348Z,98676.13
2022-11-01T08:09:02.319Z,98676.88
2022-11-01T08:10:04.385Z,98677.64
2022-11-01T08:11:06.243Z,98673.69
2022-11-01T08:12:07.964Z,98673.52
2022-11-01T08:13:24.335Z,98669.83
2022-11-01T08:14:26.061Z,98669.02
2022-11-01T08:15:27.911Z,98668.05
2022-11-01T08:16:30.002Z,98665.39
2022-11-01T08:17:34.723Z,98666.25
2022-11-01T08:18:36.374Z,98663.40
2022-11-01T08:19:38.051Z,98660.67
2022-11-01T08:20:41.185Z,98655.42
2022-11-01T08:21:42.985Z,98657.31
2022-11-01T08:23:46.783Z,98653.17
2022-11-01T08:24:48.415Z,98653.05
2022-11-01T08:25:50.069Z,98650.45
2022-11-01T08:26:52.971Z,98650.11
2022-11-01T08:27:54.672Z,98646.10
2022-11-01T08:28:56.318Z,98645.55
2022-11-01T08:29:58.019Z,98640.77
2022-11-01T08:30:59.682Z,98633.36
2022-11-01T08:32:01.411Z,98631.39
2022-11-01T08:33:05.284Z,98632.77
2022-11-01T08:34:07.566Z,98626.05
2022-11-01T08:35:12.023Z,98625.75
2022-11-01T08:36:14.726Z,98624.86
2022-11-01T08:37:18.580Z,98627.33
2022-11-01T08:38:20.331Z,98629.14
2022-11-01T08:39:22.186Z,98627.75
2022-11-01T08:40:24.030Z,98626.59
2022-11-01T08:41:25.730Z,98624.46
2022-11-01T08:42:27.338Z,98624.70
2022-11-01T08:43:29.568Z,98624.67
2022-11-01T08:44:32.674Z,98628.88
2022-11-01T08:45:34.397Z,98630.39
2022-11-01T08:46:36.076Z,98635.77
2022-11-01T08:47:39.516Z,98639.51
2022-11-01T08:48:41.226Z,98637.48
2022-11-01T08:49:43.014Z,98640.77
2022-11-01T08:50:44.700Z,98637.84
2022-11-01T08:51:46.382Z,98639.70
2022-11-01T08:52:48.055Z,98638.59
2022-11-01T08:53:49.979Z,98640.14
2022-11-01T08:54:51.650Z,98638.09
2022-11-01T08:55:57.433Z,98638.39
2022-11-01T08:56:59.085Z,98639.69
2022-11-01T08:58:01.081Z,98643.28
2022-11-01T08:59:03.753Z,98644.46
2022-11-01T09:00:13.742Z,98645.29
2022-11-01T09:01:15.613Z,98646.70
2022-11-01T09:02:17.826Z,98647.09
2022-11-01T09:03:19.618Z,98646.00
2022-11-01T09:04:21.558Z,98646.84
2022-11-01T09:05:23.615Z,98650.23
2022-11-01T09:06:26.234Z,98650.77
2022-11-01T09:07:28.331Z,98648.98
2022-11-01T09:08:30.008Z,98651.56
2022-11-01T09:09:31.957Z,98648.00
2022-11-01T09:10:34.164Z,98643.30
2022-11-01T09:11:36.323Z,98643.52
2022-11-01T09:13:45.145Z,98644.55
2022-11-01T09:14:48.488Z,98645.13
2022-11-01T09:15:50.157Z,98647.50
2022-11-01T09:16:52.490Z,98649.29
2022-11-01T09:17:54.291Z,98651.94
2022-11-01T09:19:01.454Z,98648.96
2022-11-01T09:20:05.079Z,98652.08
2022-11-01T09:21:09.900Z,98654.52
2022-11-01T09:22:11.632Z,98650.98
2022-11-01T09:23:13.297Z,98650.17
2022-11-01T09:24:17.555Z,98648.63
2022-11-01T09:25:19.986Z,98649.54
2022-11-01T09:26:21.653Z,98646.30
2022-11-01T09:27:23.295Z,98644.05
2022-11-01T09:28:26.175Z,98640.03
2022-11-01T09:29:29.545Z,98640.84
2022-11-01T09:30:31.268Z,98637.16
2022-11-01T09:31:33.497Z,98635.60
2022-11-01T09:32:35.122Z,98635.94
2022-11-01T09:33:37.122Z,98636.45
2022-11-01T09:34:38.798Z,98640.66
2022-11-01T09:35:40.587Z,98642.99
2022-11-01T09:36:42.242Z,98643.56
2022-11-01T09:37:45.247Z,98633.98
2022-11-01T09:38:47.090Z,98635.90
2022-11-01T09:39:48.747Z,98639.45
2022-11-01T09:41:04.382Z,98636.23
2022-11-01T09:42:22.860Z,98633.95
2022-11-01T09:43:29.541Z,98633.33
2022-11-01T09:44:46.960Z,98636.92
2022-11-01T09:45:52.680Z,98632.17
2022-11-01T09:47:03.228Z,98632.52
2022-11-01T09:48:07.110Z,98635.21
2022-11-01T09:49:12.936Z,98639.83
2022-11-01T09:50:22.426Z,98637.09
2022-11-01T09:51:25.503Z,98636.06
2022-11-01T09:52:27.418Z,98631.30
2022-11-01T09:53:30.775Z,98632.52
2022-11-01T09:54:33.458Z,98634.89
2022-11-01T09:56:04.271Z,98633.36
2022-11-01T09:57:27.031Z,98637.23
2022-11-01T09:59:12.466Z,98633.59
2022-11-01T10:00:19.220Z,98635.32
2022-11-01T10:01:36.280Z,98633.55
2022-11-01T10:02:50.352Z,98633.08
2022-11-01T10:04:10.602Z,98628.91
2022-11-01T10:05:20.937Z,98633.36
2022-11-01T10:07:05.499Z,98637.52
2022-11-01T10:08:28.690Z,98636.75
2022-11-01T10:09:54.008Z,98640.50
2022-11-01T10:11:04.307Z,98636.17
2022-11-01T10:12:37.364Z,98634.36
2022-11-01T10:13:54.354Z,98635.47
2022-11-01T10:15:25.029Z,98633.92
2022-11-01T10:16:36.391Z,98635.18
2022-11-01T10:17:52.103Z,98633.09
2022-11-01T10:19:03.299Z,98628.13
2022-11-01T10:20:12.318Z,98629.48
2022-11-01T10:21:16.949Z,98629.45
2022-11-01T10:22:49.057Z,98627.49
2022-11-01T10:23:53.788Z,98624.58
2022-11-01T10:25:06.973Z,98630.52
2022-11-01T10:26:16.591Z,98625.65
2022-11-01T10:27:50.328Z,98625.65
2022-11-01T10:29:20.737Z,98619.64
2022-11-01T10:30:22.586Z,98624.25
2022-11-01T10:31:27.595Z,98621.70
2022-11-01T10:32:40.945Z,98624.23
2022-11-01T10:33:56.135Z,98618.17
2022-11-01T10:35:05.265Z,98617.30
2022-11-01T10:36:18.557Z,98612.88
2022-11-01T10:37:28.864Z,98604.67
2022-11-01T10:39:10.347Z,98607.90
2022-11-01T10:40:08.403Z,98607.02
2022-11-01T10:41:31.128Z,98607.95
2022-11-01T10:42:32.995Z,98604.00
2022-11-01T10:43:43.115Z,98605.02
2022-11-01T10:45:00.405Z,98604.90
2022-11-01T10:46:08.726Z,98602.50
2022-11-01T10:47:17.006Z,98600.48
2022-11-01T10:48:34.135Z,98600.52
2022-11-01T10:51:08.395Z,98601.13
2022-11-01T10:52:15.537Z,98597.34
2022-11-01T10:53:20.664Z,98599.11
2022-11-01T10:54:30.408Z,98591.80
2022-11-01T10:55:43.458Z,98590.61
2022-11-01T10:56:50.440Z,98586.98
2022-11-01T10:58:00.261Z,98585.87
2022-11-01T10:59:11.225Z,98587.27
2022-11-01T11:00:20.278Z,98587.66
2022-11-01T11:01:27.397Z,98590.66
2022-11-01T11:02:38.725Z,98589.27
2022-11-01T11:03:44.608Z,98590.02
2022-11-01T11:04:46.544Z,98589.00
2022-11-01T11:05:51.552Z,98584.17
2022-11-01T11:06:53.253Z,98589.30
2022-11-01T11:07:57.324Z,98585.19
2022-11-01T11:09:01.286Z,98582.45
2022-11-01T11:10:04.101Z,98586.02
2022-11-01T11:11:14.377Z,98585.51
2022-11-01T11:12:19.819Z,98585.20
2022-11-01T11:13:26.490Z,98583.46
2022-11-01T11:14:32.964Z,98578.19
2022-11-01T11:15:52.622Z,98578.73
2022-11-01T11:16:57.681Z,98581.60
2022-11-01T11:18:04.248Z,98582.91
2022-11-01T11:19:08.898Z,98582.44
2022-11-01T11:20:11.683Z,98586.98
2022-11-01T11:21:13.743Z,98588.63
2022-11-01T11:22:15.635Z,98587.38
2022-11-01T11:23:22.026Z,98587.11
2022-11-01T11:24:30.383Z,98585.00
2022-11-01T11:25:41.180Z,98585.27
2022-11-01T11:26:43.445Z,98584.62
2022-11-01T11:27:50.357Z,98583.77
2022-11-01T11:28:57.010Z,98584.44
2022-11-01T11:30:05.187Z,98583.50
2022-11-01T11:31:26.700Z,98584.41
2022-11-01T11:32:36.085Z,98586.84
2022-11-01T11:33:38.005Z,98589.66
2022-11-01T11:34:41.617Z,98589.39
2022-11-01T11:35:56.796Z,98592.48
2022-11-01T11:37:01.930Z,98592.17
2022-11-01T11:38:06.917Z,98596.92
2022-11-01T11:39:23.611Z,98595.97
2022-11-01T11:40:28.336Z,98593.30
2022-11-01T11:41:36.634Z,98592.25
2022-11-01T11:42:39.198Z,98591.70
2022-11-01T11:43:42.058Z,98583.41
2022-11-01T11:44:45.356Z,98585.02
2022-11-01T11:46:04.728Z,98583.15
2022-11-01T11:47:24.459Z,98583.09
2022-11-01T11:48:26.237Z,98586.26
2022-11-01T11:49:28.103Z,98583.64
2022-11-01T11:50:33.051Z,98583.83
2022-11-01T11:51:39.607Z,98583.97
2022-11-01T11:52:42.466Z,98586.00
2022-11-01T11:54:03.115Z,98591.42
2022-11-01T11:55:05.509Z,98592.78
2022-11-01T11:56:09.523Z,98590.31
2022-11-01T11:57:18.982Z,98587.48
2022-11-01T11:58:43.633Z,98586.42
2022-11-01T11:59:51.648Z,98584.45
2022-11-01T12:01:01.328Z,98588.15
2022-11-01T12:02:15.012Z,98582.10
2022-11-01T12:03:19.007Z,98580.65
2022-11-01T12:04:23.685Z,98578.17
2022-11-01T12:05:28.747Z,98578.79
2022-11-01T12:06:35.073Z,98576.52
2022-11-01T12:07:45.226Z,98574.08
2022-11-01T12:08:53.406Z,98578.73
2022-11-01T12:09:57.373Z,98578.30
2022-11-01T12:10:59.193Z,98574.09
2022-11-01T12:12:42.657Z,98578.20
2022-11-01T12:14:02.691Z,98574.37
2022-11-01T12:15:29.109Z,98571.29
2022-11-01T12:16:40.555Z,98571.23
2022-11-01T12:17:46.900Z,98571.30
2022-11-01T12:19:01.782Z,98572.48
2022-11-01T12:20:18.558Z,98576.37
2022-11-01T12:21:41.617Z,98578.52
2022-11-01T12:22:50.373Z,98585.42
2022-11-01T12:24:01.255Z,98583.66
2022-11-01T12:25:12.806Z,98583.16
2022-11-01T12:26:20.914Z,98583.60
2022-11-01T12:27:30.664Z,98575.12
2022-11-01T12:28:47.522Z,98575.94
2022-11-01T12:29:54.000Z,98574.91
2022-11-01T12:31:08.827Z,98575.55
2022-11-01T12:32:35.190Z,98572.27
2022-11-01T12:34:05.263Z,98570.86
2022-11-01T12:35:20.024Z,98574.80
2022-11-01T12:36:31.049Z,98573.95
2022-11-01T12:37:58.516Z,98574.59
2022-11-01T12:39:27.883Z,98583.98
2022-11-01T12:40:37.916Z,98591.95
2022-11-01T12:41:59.446Z,98594.40
2022-11-01T12:43:13.150Z,98595.79
2022-11-01T12:44:32.914Z,98594.44
2022-11-01T12:45:46.647Z,98597.46
2022-11-01T12:47:03.542Z,98597.84
2022-11-01T12:48:28.186Z,98599.57
2022-11-01T12:50:07.634Z,98599.73
2022-11-01T12:51:26.181Z,98598.33
2022-11-01T12:52:47.042Z,98608.26
2022-11-01T12:54:15.544Z,98612.25
2022-11-01T12:55:37.056Z,98612.68
2022-11-01T12:56:39.945Z,98613.44
2022-11-01T12:57:41.673Z,98610.46
2022-11-01T12:58:43.676Z,98611.52
2022-11-01T12:59:47.248Z,98615.84
2022-11-01T13:01:23.976Z,98621.47
2022-11-01T13:02:40.020Z,98625.66
2022-11-01T13:04:12.404Z,98630.20
2022-11-01T13:05:28.884Z,98629.44
2022-11-01T13:06:39.962Z,98633.58
2022-11-01T13:08:10.418Z,98637.19